| time (UTC) | temp F | wind direction | speed MPH | gust MPH | rain 1hr in | rain 24hr in | rain mn in | humidity % | barometer mb |
| 20260507063025 | 53 | 212 | 2.0 | 3.0 | 0.00 | 0.00 | 0.00 | 97 | 1021.9 |
| 20260507062019 | 53 | 204 | 2.0 | 3.0 | 0.00 | 0.00 | 0.00 | 97 | 1021.9 |
| 20260507061034 | 53 | 193 | 2.0 | 4.0 | 0.00 | 0.00 | 0.00 | 97 | 1021.9 |
| 20260507060029 | 53 | 152 | 2.0 | 3.0 | 0.00 | 0.00 | 0.00 | 97 | 1021.9 |
| 20260507055023 | 53 | 177 | 2.0 | 4.0 | 0.00 | 0.00 | 0.00 | 97 | 1021.8 |
| 20260507054018 | 54 | 184 | 2.0 | 7.0 | 0.00 | 0.00 | 0.00 | 96 | 1021.9 |
| 20260507053032 | 54 | 194 | 3.0 | 6.0 | 0.00 | 0.00 | 0.00 | 96 | 1021.8 |
| 20260507052030 | 54 | 206 | 2.0 | 4.0 | 0.00 | 0.00 | 0.00 | 96 | 1021.8 |
| 20260507051023 | 54 | 215 | 2.0 | 7.0 | 0.00 | 0.00 | 0.00 | 95 | 1021.8 |
| 20260507050057 | 55 | 185 | 2.0 | 4.0 | 0.00 | 0.00 | 0.00 | 94 | 1021.8 |
| 20260507045032 | 55 | 200 | 1.0 | 4.0 | 0.00 | 0.00 | 0.00 | 94 | 1021.8 |
| 20260507044026 | 55 | 197 | 2.0 | 3.0 | 0.00 | 0.00 | 0.00 | 93 | 1021.6 |
| 20260507043101 | 56 | 183 | 1.0 | 3.0 | 0.00 | 0.00 | 0.00 | 93 | 1021.6 |
| 20260507042016 | 56 | 146 | 0.0 | 1.0 | 0.00 | 0.00 | 0.00 | 91 | 1021.6 |
| 20260507041030 | 56 | 204 | 0.0 | 1.0 | 0.00 | 0.00 | 0.00 | 90 | 1021.5 |
| 20260507040025 | 56 | 200 | 0.0 | 1.0 | 0.00 | 0.00 | 0.00 | 90 | 1021.5 |
| 20260507035020 | 57 | 193 | 0.0 | 1.0 | 0.00 | 0.00 | 0.00 | 89 | 1021.4 |
| 20260507034015 | 57 | 135 | 0.0 | 1.0 | 0.00 | 0.00 | 0.00 | 89 | 1021.4 |
| 20260507033111 | 57 | 0.0 | 0.0 | 0.00 | 0.00 | 0.00 | 88 | 1021.2 | |
| 20260507032106 | 57 | 0.0 | 0.0 | 0.00 | 0.00 | 0.00 | 88 | 1021.0 | |
| 20260507031020 | 58 | 150 | 0.0 | 1.0 | 0.00 | 0.00 | 0.00 | 88 | 1021.1 |
| 20260507030034 | 58 | 71 | 0.0 | 2.0 | 0.00 | 0.00 | 0.00 | 87 | 1021.1 |
| 20260507025028 | 59 | 181 | 0.0 | 3.0 | 0.00 | 0.00 | 0.00 | 87 | 1021.2 |
| 20260507024103 | 59 | 188 | 1.0 | 3.0 | 0.00 | 0.00 | 0.00 | 86 | 1021.1 |
| 20260507023017 | 60 | 218 | 2.0 | 4.0 | 0.00 | 0.00 | 0.00 | 85 | 1021.1 |
| 20260507022032 | 61 | 201 | 2.0 | 4.0 | 0.00 | 0.00 | 0.00 | 84 | 1020.9 |
| 20260507020022 | 64 | 195 | 2.0 | 3.0 | 0.00 | 0.00 | 0.00 | 78 | 1020.9 |
| 20260507015018 | 64 | 198 | 2.0 | 4.0 | 0.00 | 0.00 | 0.00 | 78 | 1020.9 |
| 20260507014033 | 65 | 198 | 2.0 | 4.0 | 0.00 | 0.00 | 0.00 | 77 | 1020.9 |
| 20260507013027 | 65 | 187 | 2.0 | 6.0 | 0.00 | 0.00 | 0.00 | 76 | 1021.0 |
| 20260507012022 | 66 | 186 | 2.0 | 6.0 | 0.00 | 0.00 | 0.00 | 75 | 1020.9 |
| 20260507011018 | 67 | 204 | 2.0 | 8.0 | 0.00 | 0.00 | 0.00 | 73 | 1021.0 |
| 20260507010033 | 68 | 194 | 2.0 | 4.0 | 0.00 | 0.00 | 0.00 | 72 | 1021.1 |
| 20260507005028 | 68 | 199 | 2.0 | 6.0 | 0.00 | 0.00 | 0.00 | 71 | 1021.0 |
| 20260507004022 | 68 | 182 | 2.0 | 6.0 | 0.00 | 0.00 | 0.00 | 71 | 1021.0 |
| 20260507003018 | 69 | 195 | 3.0 | 4.0 | 0.00 | 0.00 | 0.00 | 69 | 1021.0 |
| 20260507002032 | 69 | 183 | 2.0 | 4.0 | 0.00 | 0.00 | 0.00 | 70 | 1021.0 |
| 20260507001026 | 69 | 196 | 2.0 | 6.0 | 0.00 | 0.00 | 0.00 | 69 | 1021.1 |
| 20260507000022 | 69 | 203 | 2.0 | 4.0 | 0.00 | 0.00 | 0.00 | 68 | 1021.2 |
| 20260506235016 | 69 | 206 | 3.0 | 8.0 | 0.00 | 0.00 | 0.00 | 68 | 1021.2 |
| 20260506234031 | 70 | 203 | 3.0 | 8.0 | 0.00 | 0.00 | 0.00 | 68 | 1021.3 |
| 20260506233027 | 70 | 188 | 3.0 | 7.0 | 0.00 | 0.00 | 0.00 | 67 | 1021.3 |
| 20260506232100 | 70 | 192 | 2.0 | 4.0 | 0.00 | 0.00 | 0.00 | 66 | 1021.3 |
| 20260506231056 | 71 | 192 | 2.0 | 6.0 | 0.00 | 0.00 | 0.00 | 66 | 1021.3 |
| 20260506230032 | 71 | 180 | 2.0 | 3.0 | 0.00 | 0.00 | 0.00 | 67 | 1021.4 |
| 20260506225535 | 71 | 143 | 2.0 | 6.0 | 0.00 | 0.00 | 0.00 | 67 | 1021.5 |
| 20260506225035 | 71 | 188 | 3.0 | 7.0 | 0.00 | 0.00 | 0.00 | 66 | 1021.5 |
| 20260506224018 | 71 | 197 | 2.0 | 3.0 | 0.00 | 0.00 | 0.00 | 66 | 1021.6 |
| 20260506223035 | 71 | 191 | 3.0 | 6.0 | 0.00 | 0.00 | 0.00 | 65 | 1021.7 |
| 20260506222527 | 72 | 194 | 3.0 | 7.0 | 0.00 | 0.00 | 0.00 | 65 | 1021.8 |
| 20260506221611 | 72 | 281 | 3.0 | 3.0 | 0.00 | 0.00 | 0.00 | 65 | 1021.8 |
| 20260506220535 | 72 | 204 | 3.0 | 4.0 | 0.00 | 0.00 | 0.00 | 64 | 1022.1 |
| 20260506220033 | 72 | 140 | 2.0 | 3.0 | 0.00 | 0.00 | 0.00 | 65 | 1022.1 |
| 20260506215033 | 72 | 205 | 2.0 | 6.0 | 0.00 | 0.00 | 0.00 | 66 | 1022.3 |
| 20260506214027 | 71 | 166 | 3.0 | 6.0 | 0.00 | 0.00 | 0.00 | 66 | 1022.4 |
| 20260506213022 | 71 | 182 | 2.0 | 6.0 | 0.00 | 0.00 | 0.00 | 66 | 1022.4 |
| 20260506212017 | 72 | 162 | 3.0 | 7.0 | 0.00 | 0.00 | 0.00 | 65 | 1022.5 |
| 20260506211032 | 72 | 202 | 2.0 | 6.0 | 0.00 | 0.00 | 0.00 | 65 | 1022.4 |
| 20260506210028 | 72 | 197 | 3.0 | 6.0 | 0.00 | 0.00 | 0.00 | 66 | 1022.4 |
| 20260506205023 | 71 | 108 | 2.0 | 3.0 | 0.00 | 0.00 | 0.00 | 66 | 1022.5 |
| 20260506204018 | 72 | 218 | 3.0 | 7.0 | 0.00 | 0.00 | 0.00 | 64 | 1022.5 |
| 20260506203033 | 72 | 151 | 2.0 | 6.0 | 0.00 | 0.00 | 0.00 | 66 | 1022.6 |
| 20260506202110 | 72 | 150 | 2.0 | 4.0 | 0.00 | 0.00 | 0.00 | 66 | 1022.7 |
| 20260506201026 | 71 | 219 | 3.0 | 6.0 | 0.00 | 0.00 | 0.00 | 67 | 1022.9 |
| 20260506200041 | 69 | 175 | 2.0 | 4.0 | 0.00 | 0.00 | 0.00 | 69 | 1022.8 |
| 20260506195017 | 69 | 220 | 2.0 | 6.0 | 0.00 | 0.00 | 0.00 | 67 | 1022.9 |
| 20260506194054 | 71 | 162 | 2.0 | 4.0 | 0.00 | 0.00 | 0.00 | 67 | 1023.0 |
| 20260506193028 | 69 | 193 | 2.0 | 6.0 | 0.00 | 0.00 | 0.00 | 70 | 1023.0 |
| 20260506192025 | 69 | 165 | 2.0 | 6.0 | 0.00 | 0.00 | 0.00 | 67 | 1023.2 |
| 20260506191020 | 70 | 173 | 2.0 | 4.0 | 0.00 | 0.00 | 0.00 | 68 | 1023.3 |
| 20260506190035 | 69 | 218 | 2.0 | 4.0 | 0.00 | 0.00 | 0.00 | 70 | 1023.4 |
| 20260506185030 | 68 | 189 | 2.0 | 6.0 | 0.00 | 0.00 | 0.00 | 72 | 1023.3 |
| 20260506184024 | 66 | 222 | 2.0 | 4.0 | 0.00 | 0.00 | 0.00 | 72 | 1023.4 |
| 20260506183018 | 66 | 166 | 1.0 | 3.0 | 0.00 | 0.00 | 0.00 | 73 | 1023.4 |
| 20260506182034 | 67 | 164 | 2.0 | 6.0 | 0.00 | 0.00 | 0.00 | 72 | 1023.4 |
| 20260506181029 | 66 | 183 | 1.0 | 3.0 | 0.00 | 0.00 | 0.00 | 75 | 1023.3 |
| 20260506180025 | 65 | 166 | 2.0 | 4.0 | 0.00 | 0.00 | 0.00 | 74 | 1023.3 |
| 20260506175040 | 65 | 148 | 2.0 | 4.0 | 0.00 | 0.00 | 0.00 | 76 | 1023.4 |
| 20260506174035 | 64 | 200 | 0.0 | 3.0 | 0.00 | 0.00 | 0.00 | 76 | 1023.3 |
| 20260506173029 | 64 | 167 | 1.0 | 4.0 | 0.00 | 0.00 | 0.00 | 77 | 1023.4 |
| 20260506172024 | 63 | 154 | 2.0 | 6.0 | 0.00 | 0.00 | 0.00 | 79 | 1023.4 |
| 20260506171019 | 62 | 202 | 2.0 | 6.0 | 0.00 | 0.00 | 0.00 | 81 | 1023.5 |
| 20260506170033 | 61 | 215 | 1.0 | 3.0 | 0.00 | 0.00 | 0.00 | 81 | 1023.5 |
| 20260506165027 | 61 | 172 | 1.0 | 3.0 | 0.00 | 0.00 | 0.00 | 81 | 1023.3 |
| 20260506164042 | 61 | 212 | 2.0 | 3.0 | 0.00 | 0.00 | 0.00 | 82 | 1023.4 |
| 20260506163017 | 61 | 178 | 0.0 | 1.0 | 0.00 | 0.00 | 0.00 | 82 | 1023.4 |
| 20260506162053 | 61 | 174 | 2.0 | 4.0 | 0.00 | 0.00 | 0.00 | 82 | 1023.4 |
| 20260506161046 | 60 | 215 | 1.0 | 4.0 | 0.00 | 0.00 | 0.00 | 84 | 1023.3 |
| 20260506155035 | 58 | 209 | 1.0 | 3.0 | 0.00 | 0.00 | 0.00 | 87 | 1023.5 |
| 20260506154030 | 57 | 187 | 2.0 | 3.0 | 0.00 | 0.00 | 0.00 | 89 | 1023.3 |
| 20260506153024 | 56 | 172 | 0.0 | 1.0 | 0.00 | 0.00 | 0.00 | 92 | 1023.3 |
| 20260506152020 | 55 | 198 | 1.0 | 3.0 | 0.00 | 0.00 | 0.00 | 93 | 1023.2 |
| 20260506151035 | 55 | 199 | 0.0 | 1.0 | 0.00 | 0.00 | 0.00 | 92 | 1023.3 |
| 20260506150030 | 55 | 191 | 0.0 | 1.0 | 0.00 | 0.00 | 0.00 | 93 | 1023.3 |
| 20260506145025 | 55 | 197 | 0.0 | 2.0 | 0.00 | 0.00 | 0.00 | 94 | 1023.2 |
| 20260506144043 | 54 | 204 | 1.0 | 2.0 | 0.00 | 0.00 | 0.00 | 94 | 1023.1 |
| 20260506143035 | 53 | 212 | 0.0 | 1.0 | 0.00 | 0.01 | 0.00 | 94 | 1023.2 |
| 20260506142029 | 53 | 0.0 | 0.0 | 0.00 | 0.01 | 0.00 | 94 | 1023.0 | |
| 20260506141023 | 53 | 0.0 | 0.0 | 0.00 | 0.01 | 0.00 | 94 | 1022.9 | |
| 20260506140038 | 53 | 0.0 | 0.0 | 0.00 | 0.01 | 0.00 | 94 | 1022.7 | |
| 20260506135052 | 53 | 0.0 | 0.0 | 0.00 | 0.01 | 0.00 | 94 | 1022.6 | |
| 20260506134027 | 53 | 0.0 | 0.0 | 0.00 | 0.01 | 0.00 | 94 | 1022.7 | |
| 20260506133022 | 53 | 0.0 | 0.0 | 0.00 | 0.01 | 0.00 | 93 | 1022.6 | |
| 20260506132017 | 53 | 0.0 | 0.0 | 0.00 | 0.01 | 0.00 | 93 | 1022.5 | |
| 20260506131032 | 53 | 0.0 | 0.0 | 0.00 | 0.01 | 0.00 | 93 | 1022.5 | |
| 20260506130027 | 53 | 0.0 | 0.0 | 0.00 | 0.01 | 0.00 | 92 | 1022.3 | |
| 20260506125022 | 53 | 0.0 | 0.0 | 0.00 | 0.01 | 0.00 | 92 | 1022.4 | |
| 20260506124017 | 53 | 0.0 | 0.0 | 0.00 | 0.01 | 0.00 | 92 | 1022.3 | |
| 20260506123052 | 53 | 0.0 | 0.0 | 0.00 | 0.01 | 0.00 | 92 | 1022.3 | |
| 20260506122026 | 53 | 0.0 | 0.0 | 0.00 | 0.01 | 0.00 | 92 | 1022.3 | |
| 20260506121023 | 53 | 218 | 0.0 | 1.0 | 0.00 | 0.01 | 0.00 | 92 | 1022.2 |
| 20260506120015 | 53 | 0.0 | 0.0 | 0.00 | 0.01 | 0.00 | 92 | 1022.1 | |
| 20260506115031 | 53 | 0.0 | 0.0 | 0.00 | 0.01 | 0.00 | 92 | 1022.1 | |
| 20260506114025 | 53 | 239 | 0.0 | 1.0 | 0.00 | 0.01 | 0.00 | 92 | 1022.0 |
| 20260506113020 | 53 | 0.0 | 0.0 | 0.00 | 0.01 | 0.00 | 92 | 1022.0 | |
| 20260506112055 | 53 | 210 | 0.0 | 1.0 | 0.00 | 0.01 | 0.00 | 92 | 1021.9 |
| 20260506111029 | 53 | 220 | 0.0 | 1.0 | 0.00 | 0.01 | 0.00 | 92 | 1021.8 |
| 20260506110024 | 53 | 0.0 | 0.0 | 0.00 | 0.01 | 0.00 | 92 | 1021.6 | |
| 20260506105019 | 53 | 204 | 0.0 | 1.0 | 0.00 | 0.01 | 0.00 | 92 | 1021.8 |
| 20260506104033 | 53 | 0.0 | 0.0 | 0.00 | 0.01 | 0.00 | 92 | 1021.6 | |
| 20260506103029 | 53 | 213 | 0.0 | 1.0 | 0.00 | 0.01 | 0.00 | 92 | 1021.7 |
| 20260506102044 | 53 | 0.0 | 0.0 | 0.00 | 0.01 | 0.00 | 92 | 1021.6 | |
| 20260506101017 | 53 | 0.0 | 0.0 | 0.00 | 0.01 | 0.00 | 92 | 1021.6 | |
| 20260506100032 | 53 | 182 | 0.0 | 1.0 | 0.00 | 0.01 | 0.00 | 92 | 1021.5 |
| 20260506095028 | 53 | 0.0 | 0.0 | 0.00 | 0.01 | 0.00 | 92 | 1021.7 | |
| 20260506094022 | 53 | 182 | 0.0 | 1.0 | 0.00 | 0.01 | 0.00 | 92 | 1021.7 |
| 20260506093017 | 53 | 217 | 0.0 | 1.0 | 0.00 | 0.01 | 0.00 | 92 | 1021.7 |
| 20260506092032 | 53 | 253 | 0.0 | 1.0 | 0.00 | 0.01 | 0.00 | 92 | 1021.6 |
| 20260506091026 | 53 | 185 | 0.0 | 1.0 | 0.00 | 0.02 | 0.00 | 92 | 1021.7 |
| 20260506085016 | 53 | 0.0 | 0.0 | 0.00 | 0.03 | 0.00 | 92 | 1021.6 | |
| 20260506084030 | 53 | 196 | 0.0 | 3.0 | 0.00 | 0.03 | 0.00 | 92 | 1021.5 |
| 20260506083025 | 53 | 181 | 0.0 | 2.0 | 0.00 | 0.03 | 0.00 | 92 | 1021.7 |
| 20260506082020 | 53 | 242 | 0.0 | 1.0 | 0.00 | 0.03 | 0.00 | 91 | 1021.7 |
| 20260506081055 | 53 | 176 | 0.0 | 1.0 | 0.00 | 0.03 | 0.00 | 91 | 1021.7 |
| 20260506073016 | 54 | 208 | 0.0 | 2.0 | 0.00 | 0.09 | 0.00 | 92 | 1021.4 |
| 20260506072031 | 54 | 213 | 0.0 | 2.0 | 0.00 | 0.10 | 0.00 | 92 | 1021.4 |
| 20260506071027 | 54 | 240 | 1.0 | 1.0 | 0.00 | 0.10 | 0.00 | 92 | 1021.3 |